createdAt,value
2018-02-11T00:00:52.851Z,99.95
2018-02-11T00:02:47.248Z,99.99
2018-02-11T00:03:47.243Z,99.99
2018-02-11T00:05:40.647Z,99.99
2018-02-11T00:06:40.602Z,99.99
2018-02-11T00:08:34.004Z,99.99
2018-02-11T00:09:33.978Z,99.99
2018-02-11T00:11:28.374Z,99.99
2018-02-11T00:12:28.396Z,99.99
2018-02-11T00:14:22.767Z,99.99
2018-02-11T00:15:22.744Z,99.99
2018-02-11T00:17:16.175Z,99.99
2018-02-11T00:18:16.114Z,99.99
2018-02-11T00:20:09.534Z,99.99
2018-02-11T00:21:09.505Z,99.99
2018-02-11T00:23:02.925Z,99.99
2018-02-11T00:24:02.885Z,99.99
2018-02-11T00:25:56.371Z,99.99
2018-02-11T00:26:56.316Z,99.99
2018-02-11T00:28:49.679Z,99.99
2018-02-11T00:29:49.677Z,99.99
2018-02-11T00:31:44.097Z,99.99
2018-02-11T00:32:44.077Z,99.99
2018-02-11T00:34:37.407Z,99.99
2018-02-11T00:35:37.448Z,99.99
2018-02-11T00:37:30.854Z,99.99
2018-02-11T00:38:30.809Z,99.99
2018-02-11T00:40:24.236Z,99.99
2018-02-11T00:41:24.216Z,99.99
2018-02-11T00:43:17.563Z,99.99
2018-02-11T00:44:17.564Z,99.99
2018-02-11T00:46:10.986Z,99.99
2018-02-11T00:47:10.973Z,99.99
2018-02-11T00:49:04.361Z,99.99
2018-02-11T00:50:04.370Z,99.99
2018-02-11T00:51:57.789Z,99.99
2018-02-11T00:52:57.766Z,99.99
2018-02-11T00:54:52.182Z,99.99
2018-02-11T00:55:52.119Z,99.99
2018-02-11T00:57:45.546Z,99.99
2018-02-11T00:58:45.492Z,99.99
2018-02-11T01:00:39.889Z,99.99
2018-02-11T01:01:39.942Z,99.99
2018-02-11T01:03:33.301Z,99.99
2018-02-11T01:04:33.255Z,99.99
2018-02-11T01:06:26.627Z,99.99
2018-02-11T01:07:26.656Z,99.99
2018-02-11T01:09:20.052Z,99.99
2018-02-11T01:10:20.031Z,99.99
2018-02-11T01:12:14.425Z,99.99
2018-02-11T01:13:14.420Z,99.99
2018-02-11T01:15:07.794Z,99.99
2018-02-11T01:16:07.805Z,99.99
2018-02-11T01:18:02.212Z,99.99
2018-02-11T01:19:02.180Z,99.99
2018-02-11T01:20:55.573Z,99.99
2018-02-11T01:21:55.550Z,99.99
2018-02-11T01:23:48.996Z,99.99
2018-02-11T01:24:48.925Z,99.99
2018-02-11T01:26:42.334Z,99.99
2018-02-11T01:27:42.346Z,99.99
2018-02-11T01:29:35.739Z,99.99
2018-02-11T01:30:35.721Z,99.99
2018-02-11T01:32:29.125Z,99.99
2018-02-11T01:33:29.102Z,99.99
2018-02-11T01:35:22.437Z,99.99
2018-02-11T01:36:22.469Z,99.99
2018-02-11T01:38:15.860Z,99.99
2018-02-11T01:39:15.844Z,99.99
2018-02-11T01:41:10.345Z,99.99
2018-02-11T01:42:10.283Z,99.99
2018-02-11T01:44:03.720Z,99.99
2018-02-11T01:45:03.749Z,99.99
2018-02-11T01:46:57.077Z,99.99
2018-02-11T01:47:57.092Z,99.99
2018-02-11T01:49:50.459Z,99.99
2018-02-11T01:50:50.475Z,99.99
2018-02-11T01:52:44.916Z,99.99
2018-02-11T01:53:44.869Z,99.99
2018-02-11T01:55:38.201Z,99.99
2018-02-11T01:56:38.212Z,99.99
2018-02-11T01:58:31.622Z,99.99
2018-02-11T01:59:31.601Z,99.99
2018-02-11T02:01:25.992Z,99.99
2018-02-11T02:02:25.984Z,99.99
2018-02-11T02:04:21.376Z,99.99
2018-02-11T02:05:21.373Z,99.99
2018-02-11T02:07:15.743Z,99.99
2018-02-11T02:08:15.743Z,99.99
2018-02-11T02:10:09.177Z,99.99
2018-02-11T02:11:09.157Z,99.99
2018-02-11T02:13:02.506Z,99.99
2018-02-11T02:14:02.516Z,99.99
2018-02-11T02:15:56.916Z,99.99
2018-02-11T02:16:56.883Z,99.99
2018-02-11T02:18:50.319Z,99.99
2018-02-11T02:19:50.323Z,99.99
2018-02-11T02:21:43.692Z,99.99
2018-02-11T02:22:43.683Z,99.99
2018-02-11T02:24:37.078Z,99.99
2018-02-11T02:25:37.060Z,99.99
2018-02-11T02:27:30.425Z,99.99
2018-02-11T02:28:30.477Z,99.99
2018-02-11T02:30:23.860Z,99.99
2018-02-11T02:31:23.864Z,99.99
2018-02-11T02:33:18.258Z,99.99
2018-02-11T02:34:18.295Z,99.99
2018-02-11T02:36:11.637Z,99.99
2018-02-11T02:37:11.609Z,99.99
2018-02-11T02:39:05.009Z,99.99
2018-02-11T02:40:05.023Z,99.99
2018-02-11T02:41:58.394Z,99.99
2018-02-11T02:42:58.348Z,99.99
2018-02-11T02:44:52.796Z,99.99
2018-02-11T02:45:52.760Z,99.99
2018-02-11T02:47:46.189Z,99.99
2018-02-11T02:48:46.179Z,99.99
2018-02-11T02:50:40.569Z,99.99
2018-02-11T02:51:40.521Z,99.99
2018-02-11T02:53:33.897Z,99.99
2018-02-11T02:54:33.913Z,99.99
2018-02-11T02:56:27.315Z,99.99
2018-02-11T02:57:27.302Z,99.99
2018-02-11T02:59:21.674Z,99.99
2018-02-11T03:00:21.651Z,99.99
2018-02-11T03:02:15.032Z,99.99
2018-02-11T03:03:15.040Z,99.99
2018-02-11T03:05:08.407Z,99.99
2018-02-11T03:06:08.385Z,99.99
2018-02-11T03:08:03.777Z,99.99
2018-02-11T03:09:03.777Z,99.99
2018-02-11T03:10:57.186Z,99.99
2018-02-11T03:11:57.196Z,99.99
2018-02-11T03:13:50.544Z,99.99
2018-02-11T03:14:50.556Z,99.99
2018-02-11T03:16:43.920Z,99.99
2018-02-11T03:17:43.912Z,99.99
2018-02-11T03:19:37.354Z,99.99
2018-02-11T03:20:37.341Z,99.99
2018-02-11T03:22:31.736Z,99.99
2018-02-11T03:23:31.702Z,99.99
2018-02-11T03:25:26.106Z,99.99
2018-02-11T03:26:26.087Z,99.99
2018-02-11T03:28:20.444Z,99.99
2018-02-11T03:29:20.465Z,99.99
2018-02-11T03:31:13.907Z,99.99
2018-02-11T03:32:13.905Z,99.99
2018-02-11T03:34:07.220Z,99.99
2018-02-11T03:35:07.242Z,99.99
2018-02-11T03:37:00.636Z,99.99
2018-02-11T03:38:00.594Z,99.99
2018-02-11T03:39:53.981Z,99.99
2018-02-11T03:40:54.004Z,99.99
2018-02-11T03:42:48.409Z,99.99
2018-02-11T03:43:48.374Z,99.99
2018-02-11T03:45:42.753Z,99.99
2018-02-11T03:46:42.786Z,99.99
2018-02-11T03:48:36.134Z,99.99
2018-02-11T03:49:36.171Z,99.99
2018-02-11T03:51:30.502Z,99.99
2018-02-11T03:52:30.527Z,99.99
2018-02-11T03:54:24.936Z,99.99
2018-02-11T03:55:24.897Z,99.99
2018-02-11T03:57:18.255Z,99.99
2018-02-11T03:58:18.289Z,99.99
2018-02-11T04:00:11.687Z,99.99
2018-02-11T04:01:11.645Z,99.99
2018-02-11T04:03:05.006Z,99.99
2018-02-11T04:04:05.077Z,99.99
2018-02-11T04:05:58.708Z,99.99
2018-02-11T04:06:58.668Z,99.99
2018-02-11T04:08:52.068Z,99.99
2018-02-11T04:09:52.059Z,99.99
2018-02-11T04:11:45.469Z,99.99
2018-02-11T04:12:45.433Z,99.99
2018-02-11T04:14:39.847Z,99.99
2018-02-11T04:15:39.839Z,99.99
2018-02-11T04:17:33.251Z,99.99
2018-02-11T04:18:33.217Z,99.99
2018-02-11T04:20:27.603Z,99.99
2018-02-11T04:21:27.605Z,99.99
2018-02-11T04:23:20.959Z,99.99
2018-02-11T04:24:20.980Z,99.99
2018-02-11T04:26:15.398Z,99.99
2018-02-11T04:27:15.402Z,99.99
2018-02-11T04:29:08.758Z,99.99
2018-02-11T04:30:08.729Z,99.99
2018-02-11T04:32:02.169Z,99.99
2018-02-11T04:33:02.164Z,99.99
2018-02-11T04:34:55.519Z,99.99
2018-02-11T04:35:55.541Z,99.99
2018-02-11T04:37:48.925Z,99.99
2018-02-11T04:38:48.887Z,99.99
2018-02-11T04:40:42.341Z,99.99
2018-02-11T04:41:42.320Z,99.99
2018-02-11T04:43:36.703Z,99.99
2018-02-11T04:44:36.658Z,99.99
2018-02-11T04:46:30.149Z,99.99
2018-02-11T04:47:30.067Z,99.99
2018-02-11T04:49:23.473Z,99.99
2018-02-11T04:50:23.489Z,99.99
2018-02-11T04:52:17.895Z,99.99
2018-02-11T04:53:17.866Z,99.99
2018-02-11T04:55:12.239Z,99.99
2018-02-11T04:56:12.211Z,99.99
2018-02-11T04:58:05.671Z,99.99
2018-02-11T04:59:05.586Z,99.99
2018-02-11T05:00:58.990Z,99.99
2018-02-11T05:01:58.990Z,99.99
2018-02-11T05:03:52.379Z,99.99
2018-02-11T05:04:52.347Z,99.99
2018-02-11T05:06:45.708Z,99.99
2018-02-11T05:07:45.717Z,99.99
2018-02-11T05:09:39.189Z,99.99
2018-02-11T05:10:39.132Z,99.99
2018-02-11T05:12:33.543Z,99.99
2018-02-11T05:13:33.491Z,99.99
2018-02-11T05:15:27.876Z,99.99
2018-02-11T05:16:27.887Z,99.99
2018-02-11T05:18:21.274Z,99.99
2018-02-11T05:19:21.264Z,99.99
2018-02-11T05:21:14.652Z,99.99
2018-02-11T05:22:14.628Z,99.99
2018-02-11T05:24:07.988Z,99.99
2018-02-11T05:25:08.033Z,99.99
2018-02-11T05:27:01.415Z,99.99
2018-02-11T05:28:01.418Z,99.99
2018-02-11T05:29:55.820Z,99.99
2018-02-11T05:30:55.784Z,99.99
2018-02-11T05:32:49.209Z,99.99
2018-02-11T05:33:49.178Z,99.99
2018-02-11T05:35:42.584Z,99.99
2018-02-11T05:36:42.569Z,99.99
2018-02-11T05:38:35.910Z,99.99
2018-02-11T05:39:35.917Z,99.99
2018-02-11T05:41:29.365Z,99.99
2018-02-11T05:42:29.313Z,99.99
2018-02-11T05:44:22.654Z,99.99
2018-02-11T05:45:22.697Z,99.99
2018-02-11T05:47:17.146Z,99.99
2018-02-11T05:48:17.065Z,99.99
2018-02-11T05:50:10.457Z,99.99
2018-02-11T05:51:10.509Z,99.99
2018-02-11T05:53:04.818Z,99.99
2018-02-11T05:54:04.867Z,99.99
2018-02-11T05:55:58.233Z,99.99
2018-02-11T05:56:58.192Z,99.99
2018-02-11T05:58:51.613Z,99.99
2018-02-11T05:59:51.598Z,99.99
2018-02-11T06:01:45.954Z,99.99
2018-02-11T06:02:46.012Z,99.99
2018-02-11T06:04:40.378Z,99.99
2018-02-11T06:05:40.378Z,99.99
2018-02-11T06:07:33.715Z,99.99
2018-02-11T06:08:33.775Z,99.99
2018-02-11T06:10:28.129Z,99.99
2018-02-11T06:11:28.166Z,99.99
2018-02-11T06:13:21.566Z,99.99
2018-02-11T06:14:21.559Z,99.99
2018-02-11T06:16:14.906Z,99.99
2018-02-11T06:17:14.912Z,99.99
2018-02-11T06:19:08.298Z,99.99
2018-02-11T06:20:08.304Z,99.99
2018-02-11T06:22:01.692Z,99.99
2018-02-11T06:23:01.645Z,99.99
2018-02-11T06:24:55.010Z,99.99
2018-02-11T06:25:55.026Z,99.99
2018-02-11T06:27:48.457Z,99.99
2018-02-11T06:28:48.452Z,99.99
2018-02-11T06:30:41.856Z,99.99
2018-02-11T06:31:41.832Z,99.99
2018-02-11T06:33:35.220Z,99.99
2018-02-11T06:34:35.282Z,99.99
2018-02-11T06:36:28.638Z,99.90
2018-02-11T06:37:28.591Z,99.99
2018-02-11T06:39:22.074Z,99.99
2018-02-11T06:40:21.978Z,99.99
2018-02-11T06:42:15.359Z,99.99
2018-02-11T06:43:15.395Z,99.99
2018-02-11T06:45:09.755Z,99.99
2018-02-11T06:46:09.741Z,99.99
2018-02-11T06:48:04.142Z,99.99
2018-02-11T06:49:04.159Z,99.99
2018-02-11T06:50:57.473Z,99.99
2018-02-11T06:51:57.515Z,99.99
2018-02-11T06:53:50.917Z,99.71
2018-02-11T06:54:50.887Z,99.99
2018-02-11T06:56:45.292Z,99.99
2018-02-11T06:57:45.279Z,99.99
2018-02-11T06:59:38.696Z,99.99
2018-02-11T07:00:38.665Z,99.99
2018-02-11T07:02:32.056Z,99.43
2018-02-11T07:03:32.039Z,99.80
2018-02-11T07:05:25.422Z,99.33
2018-02-11T07:06:25.419Z,98.86
2018-02-11T07:08:18.820Z,99.52
2018-02-11T07:09:18.792Z,99.05
2018-02-11T07:11:14.198Z,98.58
2018-02-11T07:12:14.177Z,98.29
2018-02-11T07:14:08.567Z,98.20
2018-02-11T07:15:08.636Z,99.15
2018-02-11T07:17:02.968Z,98.86
2018-02-11T07:18:02.963Z,99.24
2018-02-11T07:19:56.341Z,99.80
2018-02-11T07:20:56.325Z,98.86
2018-02-11T07:22:50.746Z,97.91
2018-02-11T07:23:50.753Z,97.25
2018-02-11T07:25:44.143Z,98.10
2018-02-11T07:26:44.100Z,97.72
2018-02-11T07:28:37.537Z,97.53
2018-02-11T07:29:37.447Z,98.01
2018-02-11T07:31:30.914Z,98.39
2018-02-11T07:32:30.907Z,98.39
2018-02-11T07:34:24.300Z,97.44
2018-02-11T07:35:24.352Z,97.53
2018-02-11T07:37:17.732Z,97.53
2018-02-11T07:38:17.743Z,97.72
2018-02-11T07:40:11.041Z,98.20
2018-02-11T07:41:11.077Z,97.63
2018-02-11T07:43:04.448Z,97.63
2018-02-11T07:44:04.434Z,97.49
2018-02-11T07:45:57.903Z,97.20
2018-02-11T07:46:57.839Z,96.83
2018-02-11T07:48:51.262Z,96.45
2018-02-11T07:49:51.221Z,96.31
2018-02-11T07:51:44.607Z,96.92
2018-02-11T07:52:44.618Z,96.35
2018-02-11T07:54:39.026Z,96.92
2018-02-11T07:55:39.028Z,96.92
2018-02-11T07:57:32.487Z,96.07
2018-02-11T07:58:32.429Z,96.35
2018-02-11T08:00:25.810Z,95.69
2018-02-11T08:01:25.779Z,96.16
2018-02-11T08:03:20.149Z,96.16
2018-02-11T08:04:20.129Z,96.07
2018-02-11T08:06:14.560Z,95.40
2018-02-11T08:07:14.533Z,95.88
2018-02-11T08:09:08.952Z,96.45
2018-02-11T08:10:08.963Z,95.59
2018-02-11T08:12:02.316Z,95.12
2018-02-11T08:13:02.281Z,94.46
2018-02-11T08:14:55.750Z,93.61
2018-02-11T08:15:55.706Z,93.51
2018-02-11T08:17:50.108Z,93.42
2018-02-11T08:18:50.111Z,93.04
2018-02-11T08:20:43.492Z,94.65
2018-02-11T08:21:43.476Z,94.46
2018-02-11T08:23:36.821Z,93.32
2018-02-11T08:24:36.843Z,92.85
2018-02-11T08:26:30.246Z,92.10
2018-02-11T08:27:30.211Z,91.43
2018-02-11T08:29:24.620Z,92.76
2018-02-11T08:30:24.632Z,92.57
2018-02-11T08:32:19.030Z,91.72
2018-02-11T08:33:19.022Z,90.77
2018-02-11T08:35:12.456Z,91.10
2018-02-11T08:36:12.372Z,90.30
2018-02-11T08:38:05.759Z,90.34
2018-02-11T08:39:05.722Z,90.01
2018-02-11T08:40:59.147Z,90.34
2018-02-11T08:41:59.121Z,89.68
2018-02-11T08:43:52.543Z,88.31
2018-02-11T08:44:52.562Z,88.92
2018-02-11T08:46:46.935Z,88.82
2018-02-11T08:47:46.942Z,88.92
2018-02-11T08:49:40.283Z,88.92
2018-02-11T08:50:40.264Z,88.07
2018-02-11T08:52:34.661Z,86.36
2018-02-11T08:53:34.679Z,86.27
2018-02-11T08:55:28.075Z,86.46
2018-02-11T08:56:28.068Z,86.18
2018-02-11T08:58:21.764Z,86.65
2018-02-11T08:59:21.725Z,86.55
2018-02-11T09:01:15.807Z,86.27
2018-02-11T09:02:15.851Z,85.99
2018-02-11T09:04:09.232Z,86.74
2018-02-11T09:05:09.216Z,86.46
2018-02-11T09:07:02.758Z,86.65
2018-02-11T09:08:02.791Z,87.40
2018-02-11T09:09:57.144Z,86.74
2018-02-11T09:10:57.174Z,87.50
2018-02-11T09:12:50.557Z,85.42
2018-02-11T09:13:50.522Z,85.23
2018-02-11T09:15:44.940Z,85.42
2018-02-11T09:16:44.914Z,85.70
2018-02-11T09:18:38.291Z,86.27
2018-02-11T09:19:38.318Z,86.46
2018-02-11T09:21:31.910Z,85.51
2018-02-11T09:22:32.024Z,85.61
2018-02-11T09:24:25.114Z,86.69
2018-02-11T09:25:25.041Z,86.74
2018-02-11T09:27:18.459Z,85.17
2018-02-11T09:28:18.465Z,86.27
2018-02-11T09:30:12.833Z,84.47
2018-02-11T09:31:12.859Z,84.85
2018-02-11T09:33:06.198Z,84.85
2018-02-11T09:34:06.233Z,86.74
2018-02-11T09:36:00.650Z,86.74
2018-02-11T09:37:00.652Z,86.83
2018-02-11T09:38:54.035Z,87.50
2018-02-11T09:39:54.034Z,87.98
2018-02-11T09:41:48.430Z,92.05
2018-02-11T09:42:48.413Z,93.56
2018-02-11T09:44:41.786Z,94.42
2018-02-11T09:45:41.763Z,93.65
2018-02-11T09:47:36.179Z,93.84
2018-02-11T09:48:36.171Z,93.94
2018-02-11T09:50:29.599Z,97.44
2018-02-11T09:51:29.561Z,99.99
2018-02-11T09:53:23.966Z,99.99
2018-02-11T09:54:23.961Z,99.99
2018-02-11T09:56:17.462Z,99.99
2018-02-11T09:57:17.517Z,99.99
2018-02-11T09:59:10.768Z,99.99
2018-02-11T10:00:10.776Z,99.99
2018-02-11T10:02:05.173Z,99.99
2018-02-11T10:03:05.188Z,99.99
2018-02-11T10:04:58.472Z,99.99
2018-02-11T10:05:58.470Z,99.99
2018-02-11T10:07:51.870Z,99.99
2018-02-11T10:08:51.849Z,99.99
2018-02-11T10:10:45.239Z,99.99
2018-02-11T10:11:45.238Z,99.99
2018-02-11T10:13:38.651Z,99.99
2018-02-11T10:14:38.634Z,99.99
2018-02-11T10:16:32.022Z,99.99
2018-02-11T10:17:32.022Z,99.99
2018-02-11T10:19:25.424Z,99.99
2018-02-11T10:20:25.406Z,99.99
2018-02-11T10:22:18.800Z,99.99
2018-02-11T10:23:18.782Z,99.99
2018-02-11T10:25:12.191Z,99.99
2018-02-11T10:26:12.161Z,99.99
2018-02-11T10:28:05.542Z,99.99
2018-02-11T10:29:05.545Z,99.99
2018-02-11T10:30:58.955Z,99.99
2018-02-11T10:31:58.945Z,99.99
2018-02-11T10:33:52.396Z,99.99
2018-02-11T10:34:52.313Z,99.99
2018-02-11T10:36:45.711Z,99.99
2018-02-11T10:37:45.700Z,99.99
2018-02-11T10:39:39.162Z,99.99
2018-02-11T10:40:39.114Z,99.99
2018-02-11T10:42:32.555Z,99.99
2018-02-11T10:43:32.481Z,99.99
2018-02-11T10:45:25.904Z,99.99
2018-02-11T10:46:25.862Z,99.99
2018-02-11T10:48:19.276Z,99.99
2018-02-11T10:49:19.294Z,99.99
2018-02-11T10:51:12.703Z,99.99
2018-02-11T10:52:12.667Z,99.99
2018-02-11T10:54:06.039Z,99.99
2018-02-11T10:55:06.042Z,99.99
2018-02-11T10:56:59.482Z,99.99
2018-02-11T10:57:59.457Z,99.99
2018-02-11T10:59:52.797Z,99.99
2018-02-11T11:00:52.799Z,99.99
2018-02-11T11:02:46.238Z,99.99
2018-02-11T11:03:46.180Z,99.99
2018-02-11T11:05:39.574Z,99.99
2018-02-11T11:06:39.624Z,99.99
2018-02-11T11:08:32.973Z,99.99
2018-02-11T11:09:32.977Z,99.99
2018-02-11T11:11:26.404Z,99.99
2018-02-11T11:12:26.390Z,99.99
2018-02-11T11:14:19.714Z,99.99
2018-02-11T11:15:19.747Z,99.99
2018-02-11T11:17:13.150Z,99.99
2018-02-11T11:18:13.138Z,99.99
2018-02-11T11:20:06.480Z,99.99
2018-02-11T11:21:06.500Z,99.99
2018-02-11T11:22:59.906Z,99.99
2018-02-11T11:23:59.893Z,99.99
2018-02-11T11:25:53.310Z,99.99
2018-02-11T11:26:53.276Z,99.99
2018-02-11T11:28:46.727Z,99.99
2018-02-11T11:29:46.672Z,99.99
2018-02-11T11:31:40.061Z,99.99
2018-02-11T11:32:40.063Z,99.99
2018-02-11T11:34:33.490Z,99.99
2018-02-11T11:35:33.464Z,99.99
2018-02-11T11:37:26.882Z,99.99
2018-02-11T11:38:26.876Z,99.99
2018-02-11T11:40:20.335Z,99.99
2018-02-11T11:41:20.302Z,99.99
2018-02-11T11:43:13.656Z,99.99
2018-02-11T11:44:13.675Z,99.99
2018-02-11T11:46:07.067Z,99.99
2018-02-11T11:47:07.075Z,99.99
2018-02-11T11:49:00.457Z,99.99
2018-02-11T11:50:00.444Z,99.99
2018-02-11T11:51:54.863Z,99.99
2018-02-11T11:52:54.833Z,99.99
2018-02-11T11:54:49.299Z,99.99
2018-02-11T11:55:49.253Z,99.99
2018-02-11T11:57:42.626Z,99.99
2018-02-11T11:58:42.625Z,99.99
2018-02-11T12:00:36.062Z,99.99
2018-02-11T12:01:35.995Z,99.99
2018-02-11T12:03:29.455Z,99.99
2018-02-11T12:04:29.389Z,99.99
2018-02-11T12:06:23.382Z,99.99
2018-02-11T12:07:22.777Z,99.99
2018-02-11T12:09:16.166Z,99.99
2018-02-11T12:10:16.184Z,99.99
2018-02-11T12:12:09.595Z,99.99
2018-02-11T12:13:09.555Z,99.99
2018-02-11T12:15:02.930Z,99.99
2018-02-11T12:16:02.941Z,99.99
2018-02-11T12:17:56.334Z,99.99
2018-02-11T12:18:56.326Z,99.99
2018-02-11T12:20:49.724Z,99.99
2018-02-11T12:21:49.695Z,99.99
2018-02-11T12:23:43.103Z,99.99
2018-02-11T12:24:43.101Z,99.99
2018-02-11T12:26:36.548Z,99.99
2018-02-11T12:27:36.478Z,99.99
2018-02-11T12:29:29.895Z,99.99
2018-02-11T12:30:29.896Z,99.99
2018-02-11T12:32:23.297Z,99.99
2018-02-11T12:33:23.304Z,99.99
2018-02-11T12:35:16.735Z,99.99
2018-02-11T12:36:16.699Z,99.99
2018-02-11T12:38:11.113Z,99.99
2018-02-11T12:39:11.077Z,99.99
2018-02-11T12:41:05.459Z,99.99
2018-02-11T12:42:05.465Z,99.99
2018-02-11T12:43:58.878Z,99.99
2018-02-11T12:44:58.864Z,99.99
2018-02-11T12:46:52.199Z,99.99
2018-02-11T12:47:52.232Z,99.99
2018-02-11T12:49:45.641Z,99.99
2018-02-11T12:50:45.613Z,99.99
2018-02-11T12:52:39.053Z,99.99
2018-02-11T12:53:39.020Z,99.99
2018-02-11T12:55:32.408Z,99.99
2018-02-11T12:56:32.392Z,99.99
2018-02-11T12:58:25.788Z,99.99
2018-02-11T12:59:25.785Z,99.99
2018-02-11T13:01:19.146Z,99.99
2018-02-11T13:02:19.159Z,99.99
2018-02-11T13:04:12.554Z,99.99
2018-02-11T13:05:12.538Z,99.99
2018-02-11T13:07:06.087Z,99.99
2018-02-11T13:08:05.932Z,99.99
2018-02-11T13:09:59.331Z,99.99
2018-02-11T13:10:59.326Z,99.99
2018-02-11T13:12:52.716Z,99.99
2018-02-11T13:13:52.725Z,99.99
2018-02-11T13:15:46.171Z,99.99
2018-02-11T13:16:46.125Z,99.99
2018-02-11T13:18:40.516Z,99.99
2018-02-11T13:19:40.520Z,99.99
2018-02-11T13:21:33.921Z,99.99
2018-02-11T13:22:33.892Z,99.99
2018-02-11T13:24:27.291Z,99.99
2018-02-11T13:25:27.291Z,99.99
2018-02-11T13:27:20.678Z,99.99
2018-02-11T13:28:20.648Z,99.99
2018-02-11T13:30:14.070Z,99.99
2018-02-11T13:31:14.029Z,99.99
2018-02-11T13:33:07.422Z,99.99
2018-02-11T13:34:07.424Z,99.99
2018-02-11T13:36:00.849Z,99.99
2018-02-11T13:37:00.798Z,99.99
2018-02-11T13:38:54.176Z,99.99
2018-02-11T13:39:54.175Z,99.99
2018-02-11T13:41:47.587Z,99.99
2018-02-11T13:42:47.573Z,99.99
2018-02-11T13:44:40.948Z,99.99
2018-02-11T13:45:41.083Z,99.99
2018-02-11T13:47:34.365Z,99.99
2018-02-11T13:48:34.336Z,99.99
2018-02-11T13:50:27.723Z,99.99
2018-02-11T13:51:27.744Z,99.99
2018-02-11T13:53:21.176Z,99.99
2018-02-11T13:54:21.168Z,99.99
2018-02-11T13:56:14.509Z,99.99
2018-02-11T13:57:14.523Z,99.99
2018-02-11T13:59:07.926Z,99.99
2018-02-11T14:00:07.878Z,99.99
2018-02-11T14:02:01.268Z,99.99
2018-02-11T14:03:01.266Z,99.99
2018-02-11T14:04:54.676Z,99.99
2018-02-11T14:05:54.679Z,99.99
2018-02-11T14:07:48.045Z,99.99
2018-02-11T14:08:48.091Z,99.99
2018-02-11T14:10:41.484Z,99.99
2018-02-11T14:11:41.683Z,99.99
2018-02-11T14:13:34.905Z,99.99
2018-02-11T14:14:34.876Z,99.99
2018-02-11T14:16:28.217Z,99.99
2018-02-11T14:17:28.222Z,99.99
2018-02-11T14:19:21.619Z,99.99
2018-02-11T14:20:21.603Z,99.99
2018-02-11T14:22:14.996Z,99.99
2018-02-11T14:23:14.982Z,99.99
2018-02-11T14:25:08.394Z,99.99
2018-02-11T14:26:08.366Z,99.99
2018-02-11T14:28:01.750Z,99.99
2018-02-11T14:29:01.762Z,99.99
2018-02-11T14:30:55.172Z,99.99
2018-02-11T14:31:55.158Z,99.99
2018-02-11T14:33:49.576Z,99.99
2018-02-11T14:34:49.566Z,99.99
2018-02-11T14:36:43.006Z,99.99
2018-02-11T14:37:42.944Z,99.99
2018-02-11T14:39:36.338Z,99.99
2018-02-11T14:40:36.340Z,99.99
2018-02-11T14:42:29.718Z,99.99
2018-02-11T14:43:29.717Z,99.99
2018-02-11T14:45:23.113Z,99.99
2018-02-11T14:46:23.080Z,99.99
2018-02-11T14:48:16.474Z,99.99
2018-02-11T14:49:16.468Z,99.99
2018-02-11T14:51:09.871Z,99.99
2018-02-11T14:52:09.848Z,99.99
2018-02-11T14:54:04.293Z,99.99
2018-02-11T14:55:04.272Z,99.99
2018-02-11T14:56:57.708Z,99.99
2018-02-11T14:57:57.675Z,99.99
2018-02-11T14:59:51.047Z,99.99
2018-02-11T15:00:51.060Z,99.99
2018-02-11T15:02:44.464Z,99.99
2018-02-11T15:03:44.429Z,99.99
2018-02-11T15:05:37.820Z,99.99
2018-02-11T15:06:37.825Z,99.99
2018-02-11T15:08:31.225Z,99.99
2018-02-11T15:09:31.228Z,99.99
2018-02-11T15:11:24.601Z,99.99
2018-02-11T15:12:24.600Z,99.99
2018-02-11T15:14:18.000Z,99.99
2018-02-11T15:15:17.975Z,99.99
2018-02-11T15:17:11.364Z,99.99
2018-02-11T15:18:11.356Z,99.99
2018-02-11T15:20:04.760Z,99.99
2018-02-11T15:21:04.755Z,99.99
2018-02-11T15:22:58.161Z,99.99
2018-02-11T15:23:58.126Z,99.99
2018-02-11T15:25:52.520Z,99.99
2018-02-11T15:26:52.508Z,99.99
2018-02-11T15:28:46.926Z,99.99
2018-02-11T15:29:46.928Z,99.99
2018-02-11T15:31:40.313Z,99.99
2018-02-11T15:32:40.295Z,99.99
2018-02-11T15:34:33.712Z,99.99
2018-02-11T15:35:33.665Z,99.99
2018-02-11T15:37:27.059Z,99.99
2018-02-11T15:38:27.047Z,99.99
2018-02-11T15:40:20.505Z,99.99
2018-02-11T15:41:20.494Z,99.99
2018-02-11T15:43:13.843Z,99.99
2018-02-11T15:44:13.845Z,99.99
2018-02-11T15:46:07.249Z,99.99
2018-02-11T15:47:07.218Z,99.99
2018-02-11T15:49:00.631Z,99.99
2018-02-11T15:50:00.609Z,99.99
2018-02-11T15:51:54.008Z,99.99
2018-02-11T15:52:54.008Z,99.99
2018-02-11T15:54:48.351Z,99.99
2018-02-11T15:55:48.387Z,99.99
2018-02-11T15:57:41.742Z,99.99
2018-02-11T15:58:41.764Z,99.99
2018-02-11T16:00:36.132Z,99.99
2018-02-11T16:01:36.180Z,99.99
2018-02-11T16:03:29.507Z,99.99
2018-02-11T16:04:29.500Z,99.99
2018-02-11T16:06:22.897Z,99.99
2018-02-11T16:07:22.925Z,99.99
2018-02-11T16:09:16.313Z,99.99
2018-02-11T16:10:16.272Z,99.99
2018-02-11T16:12:09.653Z,99.99
2018-02-11T16:13:09.656Z,99.99
2018-02-11T16:15:03.065Z,99.99
2018-02-11T16:16:03.055Z,99.99
2018-02-11T16:17:57.428Z,99.99
2018-02-11T16:18:57.415Z,99.99
2018-02-11T16:20:50.826Z,99.99
2018-02-11T16:21:50.818Z,99.99
2018-02-11T16:23:45.222Z,99.99
2018-02-11T16:24:45.186Z,99.99
2018-02-11T16:26:38.581Z,99.99
2018-02-11T16:27:38.591Z,99.99
2018-02-11T16:29:31.977Z,99.99
2018-02-11T16:30:31.978Z,99.99
2018-02-11T16:32:25.352Z,99.99
2018-02-11T16:33:25.350Z,99.99
2018-02-11T16:35:18.756Z,99.99
2018-02-11T16:36:18.742Z,99.99
2018-02-11T16:38:12.126Z,99.99
2018-02-11T16:39:12.121Z,99.99
2018-02-11T16:41:05.511Z,99.99
2018-02-11T16:42:05.503Z,99.99
2018-02-11T16:43:58.881Z,99.99
2018-02-11T16:44:58.876Z,99.99
2018-02-11T16:46:52.309Z,99.99
2018-02-11T16:47:52.267Z,99.99
2018-02-11T16:49:45.645Z,99.99
2018-02-11T16:50:45.684Z,99.99
2018-02-11T16:52:39.111Z,99.99
2018-02-11T16:53:39.060Z,99.99
2018-02-11T16:55:32.415Z,99.99
2018-02-11T16:56:32.416Z,99.99
2018-02-11T16:58:25.818Z,99.99
2018-02-11T16:59:25.796Z,99.99
2018-02-11T17:01:19.237Z,99.99
2018-02-11T17:02:19.177Z,99.99
2018-02-11T17:04:12.563Z,99.99
2018-02-11T17:05:12.577Z,99.99
2018-02-11T17:07:05.993Z,99.99
2018-02-11T17:08:05.943Z,99.99
2018-02-11T17:10:00.319Z,99.99
2018-02-11T17:11:00.322Z,99.99
2018-02-11T17:12:53.724Z,99.99
2018-02-11T17:13:53.721Z,99.99
2018-02-11T17:15:47.083Z,99.99
2018-02-11T17:16:47.083Z,99.99
2018-02-11T17:18:40.496Z,99.99
2018-02-11T17:19:40.493Z,99.99
2018-02-11T17:21:33.861Z,99.99
2018-02-11T17:22:33.856Z,99.99
2018-02-11T17:24:27.291Z,99.99
2018-02-11T17:25:27.283Z,99.99
2018-02-11T17:27:20.677Z,99.99
2018-02-11T17:28:20.659Z,99.99
2018-02-11T17:30:14.061Z,99.99
2018-02-11T17:31:14.041Z,99.99
2018-02-11T17:33:07.422Z,99.99
2018-02-11T17:34:07.424Z,99.99
2018-02-11T17:36:01.848Z,99.99
2018-02-11T17:37:01.810Z,99.99
2018-02-11T17:38:55.192Z,99.99
2018-02-11T17:39:55.192Z,99.99
2018-02-11T17:41:48.610Z,99.99
2018-02-11T17:42:48.578Z,99.99
2018-02-11T17:44:42.004Z,99.99
2018-02-11T17:45:41.959Z,99.99
2018-02-11T17:47:35.347Z,99.99
2018-02-11T17:48:35.352Z,99.99
2018-02-11T17:50:28.746Z,99.99
2018-02-11T17:51:28.728Z,99.99
2018-02-11T17:53:22.120Z,99.99
2018-02-11T17:54:22.116Z,99.99
2018-02-11T17:56:15.518Z,99.99
2018-02-11T17:57:15.496Z,99.99
2018-02-11T17:59:08.891Z,99.99
2018-02-11T18:00:08.902Z,99.99
2018-02-11T18:02:02.307Z,99.99
2018-02-11T18:03:02.273Z,99.99
2018-02-11T18:04:55.653Z,99.99
2018-02-11T18:05:55.659Z,99.99
2018-02-11T18:07:49.074Z,99.99
2018-02-11T18:08:49.042Z,99.99
2018-02-11T18:10:42.427Z,99.99
2018-02-11T18:11:42.422Z,99.99
2018-02-11T18:13:35.828Z,99.99
2018-02-11T18:14:35.808Z,99.99
2018-02-11T18:16:29.188Z,99.99
2018-02-11T18:17:29.197Z,99.99
2018-02-11T18:19:22.611Z,99.99
2018-02-11T18:20:22.584Z,99.99
2018-02-11T18:22:17.013Z,99.99
2018-02-11T18:23:16.995Z,99.99
2018-02-11T18:25:10.357Z,99.99
2018-02-11T18:26:10.347Z,99.99
2018-02-11T18:28:03.759Z,99.99
2018-02-11T18:29:03.729Z,99.99
2018-02-11T18:30:57.112Z,99.99
2018-02-11T18:31:57.112Z,99.99
2018-02-11T18:33:51.513Z,99.99
2018-02-11T18:34:51.492Z,99.99
2018-02-11T18:36:44.883Z,99.99
2018-02-11T18:37:44.879Z,99.99